Time;durP1;ratioP1;P1;durP2;ratioP2;P2;SDS_P1;SDS_P2;PMS_P1;PMS_P2;Temp;Humidity;BMP_temperature;BMP_pressure;BME280_temperature;BME280_humidity;BME280_pressure;Samples;Min_cycle;Max_cycle;Signal;HPM_P1;HPM_P2
2022/06/06 00:01:53;;;;;;;4.82;3.60;;;18.80;99.90;;;;;;5090218;28;20778;-74
2022/06/06 00:04:22;;;;;;;4.35;3.95;;;18.80;99.90;;;;;;5090778;28;20265;-73
2022/06/06 00:06:51;;;;;;;5.55;3.97;;;18.80;99.90;;;;;;5090013;28;20292;-73
2022/06/06 00:09:19;;;;;;;5.70;3.65;;;18.80;99.90;;;;;;5090237;28;20248;-71
2022/06/06 00:11:47;;;;;;;4.20;3.90;;;18.70;99.90;;;;;;5075149;28;20666;-71
2022/06/06 00:14:16;;;;;;;4.10;3.78;;;18.80;99.90;;;;;;5075138;28;20266;-74
2022/06/06 00:16:43;;;;;;;4.32;3.80;;;18.80;99.90;;;;;;5069543;28;20666;-74
2022/06/06 00:19:11;;;;;;;5.35;3.78;;;18.80;99.90;;;;;;5070046;28;20210;-73
2022/06/06 00:21:39;;;;;;;6.35;4.40;;;18.80;99.90;;;;;;5069651;28;20283;-73
2022/06/06 00:24:07;;;;;;;4.43;4.03;;;18.80;99.90;;;;;;5069941;28;20232;-73
2022/06/06 00:26:35;;;;;;;5.25;4.75;;;18.90;99.90;;;;;;5069535;28;20263;-73
2022/06/06 00:29:04;;;;;;;4.60;4.20;;;18.90;99.90;;;;;;5074028;28;20251;-73
2022/06/06 00:37:04;;;;;;;4.43;4.13;;;19.10;99.90;;;;;;5073843;28;20788;-73
2022/06/06 00:39:31;;;;;;;4.05;3.75;;;19.10;99.90;;;;;;5073190;28;20557;-73
2022/06/06 00:41:58;;;;;;;6.00;4.65;;;19.10;99.90;;;;;;5073032;28;20590;-73
2022/06/06 00:44:31;;;;;;;4.93;3.63;;;19.10;99.90;;;;;;5073489;28;20635;-73
2022/06/06 00:47:05;;;;;;;4.10;3.70;;;19.10;99.90;;;;;;5072939;28;20677;-72
2022/06/06 00:49:37;;;;;;;5.88;4.22;;;19.10;99.90;;;;;;5073083;28;20213;-72
2022/06/06 00:52:08;;;;;;;4.57;4.10;;;19.00;99.90;;;;;;5073102;28;20795;-73
2022/06/06 00:54:35;;;;;;;4.65;3.95;;;19.00;99.90;;;;;;5072755;28;20629;-73
2022/06/06 00:57:05;;;;;;;7.90;4.25;;;19.00;99.90;;;;;;5073135;28;20202;-73
2022/06/06 00:59:37;;;;;;;4.53;4.13;;;19.00;99.90;;;;;;5072879;28;20267;-73
2022/06/06 01:02:08;;;;;;;5.00;3.92;;;19.00;99.90;;;;;;5072601;28;20226;-73
2022/06/06 01:04:35;;;;;;;4.75;4.35;;;18.90;99.90;;;;;;5072702;28;20210;-73
2022/06/06 01:07:02;;;;;;;5.30;3.95;;;18.80;99.90;;;;;;5072956;28;20206;-73
2022/06/06 01:09:29;;;;;;;5.22;4.25;;;18.70;99.90;;;;;;5072588;28;20255;-73
2022/06/06 01:12:00;;;;;;;4.45;4.05;;;18.60;99.90;;;;;;5072754;28;20206;-73
2022/06/06 01:14:32;;;;;;;6.38;5.15;;;18.50;99.90;;;;;;5081219;28;20214;-71
2022/06/06 01:17:04;;;;;;;5.13;4.47;;;18.50;99.90;;;;;;5093179;28;20206;-73
2022/06/06 01:19:55;;;;;;;5.85;5.10;;;18.20;99.90;;;;;;5092505;28;20749;-72
2022/06/06 01:22:57;;;;;;;8.68;5.43;;;18.10;99.90;;;;;;5093007;28;20255;-73
2022/06/06 01:25:49;;;;;;;6.38;4.80;;;18.10;99.90;;;;;;5070121;28;20266;-72
2022/06/06 01:28:44;;;;;;;4.82;4.35;;;18.10;99.90;;;;;;5092844;28;20262;-72
2022/06/06 01:31:16;;;;;;;5.13;4.63;;;18.20;99.90;;;;;;5092690;28;20205;-74
2022/06/06 01:33:55;;;;;;;6.07;4.68;;;18.10;99.90;;;;;;5092372;28;20213;-73
2022/06/06 01:36:23;;;;;;;4.47;4.18;;;18.20;99.90;;;;;;5066809;28;20333;-73
2022/06/06 01:38:50;;;;;;;5.60;5.10;;;18.20;99.90;;;;;;5092334;28;20292;-72
2022/06/06 01:41:24;;;;;;;5.03;4.47;;;18.20;99.90;;;;;;5082000;28;20222;-70
2022/06/06 01:44:01;;;;;;;8.02;5.57;;;18.30;99.90;;;;;;5071955;28;20678;-70
2022/06/06 01:46:31;;;;;;;5.90;3.97;;;18.30;99.90;;;;;;5071797;28;20221;-70
2022/06/06 01:48:59;;;;;;;7.80;4.22;;;18.40;99.90;;;;;;5072239;28;20202;-70
2022/06/06 01:51:30;;;;;;;5.78;4.78;;;18.40;99.90;;;;;;5072145;28;20213;-70
2022/06/06 01:53:57;;;;;;;5.68;4.50;;;18.40;99.90;;;;;;5072116;28;20214;-74
2022/06/06 01:56:27;;;;;;;6.53;5.32;;;18.30;99.90;;;;;;5072697;28;20633;-72
2022/06/06 01:58:55;;;;;;;5.15;4.75;;;18.30;99.90;;;;;;5072091;28;20631;-70
2022/06/06 02:01:22;;;;;;;5.68;4.97;;;18.20;99.90;;;;;;5072391;28;20207;-73
2022/06/06 02:03:49;;;;;;;5.82;5.38;;;18.20;99.90;;;;;;5071382;28;20732;-73
2022/06/06 02:06:16;;;;;;;5.35;4.95;;;18.20;99.90;;;;;;5072162;28;20209;-73
2022/06/06 02:08:43;;;;;;;5.63;4.97;;;18.20;99.90;;;;;;5071311;28;20237;-73
2022/06/06 02:11:11;;;;;;;5.25;4.75;;;18.20;99.90;;;;;;5071876;28;20292;-72
2022/06/06 02:13:38;;;;;;;6.05;5.55;;;18.20;99.90;;;;;;5072936;28;20210;-72
2022/06/06 02:16:07;;;;;;;5.15;4.35;;;18.30;99.90;;;;;;5091997;28;20269;-73
2022/06/06 02:18:34;;;;;;;5.72;5.10;;;18.20;99.90;;;;;;5091168;28;20259;-73
2022/06/06 02:21:02;;;;;;;5.30;4.80;;;18.20;99.90;;;;;;5092214;28;20593;-74
2022/06/06 02:23:29;;;;;;;9.07;5.60;;;18.20;99.90;;;;;;5091375;28;20233;-74
2022/06/06 02:25:57;;;;;;;4.95;4.50;;;18.10;99.90;;;;;;5091653;28;20206;-75
2022/06/06 02:28:24;;;;;;;8.50;5.05;;;17.90;99.90;;;;;;5091580;28;20557;-72
2022/06/06 02:30:52;;;;;;;5.80;5.30;;;17.90;99.90;;;;;;5091281;28;20197;-74
2022/06/06 02:33:20;;;;;;;6.50;4.60;;;17.80;99.90;;;;;;5091790;28;20571;-75
2022/06/06 02:35:48;;;;;;;5.55;5.05;;;17.80;99.90;;;;;;5090991;28;20646;-73
2022/06/06 02:38:15;;;;;;;4.97;4.55;;;17.80;99.90;;;;;;5091676;28;20216;-75
2022/06/06 02:40:44;;;;;;;7.22;5.03;;;17.70;99.90;;;;;;5082418;28;20220;-72
2022/06/06 02:43:12;;;;;;;5.40;4.80;;;17.70;99.90;;;;;;5069911;28;20261;-74
2022/06/06 02:45:40;;;;;;;6.70;4.70;;;17.70;99.90;;;;;;5070547;28;20300;-74
2022/06/06 02:48:09;;;;;;;7.65;5.40;;;17.70;99.90;;;;;;5071283;28;20297;-73
2022/06/06 02:50:38;;;;;;;4.78;4.35;;;17.70;99.90;;;;;;5070239;28;20297;-74
2022/06/06 02:53:06;;;;;;;6.05;5.45;;;17.60;99.90;;;;;;5070953;28;20210;-73
2022/06/06 02:55:34;;;;;;;5.22;4.72;;;17.60;99.90;;;;;;5070625;28;20206;-75
2022/06/06 02:58:01;;;;;;;7.80;5.18;;;17.60;99.90;;;;;;5070682;28;20252;-72
2022/06/06 03:00:31;;;;;;;5.82;4.72;;;17.60;99.90;;;;;;5070555;28;20293;-73
2022/06/06 03:02:59;;;;;;;5.00;4.55;;;17.60;99.90;;;;;;5070569;28;20234;-73
2022/06/06 03:05:36;;;;;;;6.20;5.07;;;17.50;99.90;;;;;;5070900;28;20251;-73
2022/06/06 03:08:14;;;;;;;7.28;5.28;;;17.50;99.90;;;;;;5070783;28;20210;-72
2022/06/06 03:10:54;;;;;;;4.60;4.20;;;17.40;99.90;;;;;;5070058;28;20210;-71
2022/06/06 03:13:37;;;;;;;5.25;4.75;;;17.20;99.90;;;;;;5071137;28;20206;-71
2022/06/06 03:22:19;;;;;;;7.72;5.13;;;17.30;99.90;;;;;;5070674;28;20229;-71
2022/06/06 03:24:59;;;;;;;5.22;4.80;;;17.20;99.90;;;;;;5070060;28;20205;-75
2022/06/06 03:27:35;;;;;;;6.25;5.65;;;17.20;99.90;;;;;;5070576;28;20210;-72
2022/06/06 03:30:08;;;;;;;6.90;5.25;;;17.30;99.90;;;;;;5070450;28;20205;-72
2022/06/06 03:32:49;;;;;;;6.13;5.47;;;17.20;99.90;;;;;;5070102;28;20206;-72
2022/06/06 03:35:22;;;;;;;6.60;6.00;;;17.20;99.90;;;;;;5070423;28;20621;-72
2022/06/06 03:37:58;;;;;;;6.57;5.95;;;17.10;99.90;;;;;;5070580;28;20241;-72
2022/06/06 03:40:36;;;;;;;6.70;6.00;;;17.20;99.90;;;;;;5069987;28;20296;-72
2022/06/06 03:43:22;;;;;;;6.70;4.90;;;17.20;99.90;;;;;;5070472;28;20290;-72
2022/06/06 03:45:52;;;;;;;10.77;7.03;;;17.20;99.90;;;;;;5057583;28;20567;-71
2022/06/06 03:48:30;;;;;;;5.85;5.05;;;17.20;99.90;;;;;;5070670;28;20237;-72
2022/06/06 03:51:03;;;;;;;9.23;6.28;;;17.20;99.90;;;;;;5070413;28;20284;-72
2022/06/06 03:53:40;;;;;;;5.97;5.38;;;17.10;99.90;;;;;;5069749;28;20206;-73
2022/06/06 03:56:23;;;;;;;7.18;6.50;;;17.00;99.90;;;;;;5069954;28;20260;-72
2022/06/06 03:58:51;;;;;;;7.30;5.57;;;17.00;99.90;;;;;;5070323;28;20263;-73
2022/06/06 04:01:22;;;;;;;7.78;6.93;;;16.90;99.90;;;;;;5070098;28;20255;-73
2022/06/06 04:03:50;;;;;;;9.38;7.45;;;16.70;99.90;;;;;;5073607;28;20733;-73
2022/06/06 04:06:19;;;;;;;8.27;7.53;;;16.60;99.90;;;;;;5073967;28;20255;-73
2022/06/06 04:08:46;;;;;;;9.55;8.48;;;16.80;99.90;;;;;;5073573;28;20267;-73
2022/06/06 04:11:25;;;;;;;10.45;9.45;;;16.70;99.90;;;;;;5073822;28;20198;-73
2022/06/06 04:14:02;;;;;;;9.60;8.70;;;16.70;99.90;;;;;;5074506;28;20275;-73
2022/06/06 04:16:39;;;;;;;8.10;6.63;;;16.70;99.90;;;;;;5073624;28;20267;-72
2022/06/06 04:19:14;;;;;;;9.38;7.13;;;16.70;99.90;;;;;;5073884;28;20267;-75
2022/06/06 04:21:49;;;;;;;10.25;6.97;;;16.90;99.90;;;;;;5073274;28;20205;-75
2022/06/06 04:24:40;;;;;;;8.85;6.32;;;16.80;99.90;;;;;;5073693;28;20237;-75
2022/06/06 04:27:16;;;;;;;7.35;6.63;;;16.90;99.90;;;;;;5072890;28;20297;-75
2022/06/06 04:29:54;;;;;;;7.05;6.18;;;17.00;99.90;;;;;;5073198;28;20210;-74
2022/06/06 04:32:29;;;;;;;6.50;5.88;;;17.00;99.90;;;;;;5074015;28;20550;-75
2022/06/06 04:35:07;;;;;;;6.80;6.05;;;17.10;99.90;;;;;;5073563;28;20205;-74
2022/06/06 04:37:40;;;;;;;6.90;6.20;;;17.10;99.90;;;;;;5072984;28;20202;-75
2022/06/06 04:40:16;;;;;;;7.25;6.55;;;17.10;99.90;;;;;;5073174;28;20259;-74
2022/06/06 04:42:52;;;;;;;10.23;5.95;;;17.00;99.90;;;;;;5072950;28;20747;-74
2022/06/06 04:45:26;;;;;;;8.85;6.82;;;16.90;99.90;;;;;;5073585;28;20709;-74
2022/06/06 04:47:55;;;;;;;6.82;6.10;;;16.80;99.90;;;;;;5073653;28;20218;-75
2022/06/06 04:50:22;;;;;;;10.00;5.90;;;16.90;99.90;;;;;;5073353;28;20736;-75
2022/06/06 04:52:52;;;;;;;9.48;6.80;;;17.10;99.90;;;;;;5072366;28;20682;-75
2022/06/06 04:55:20;;;;;;;6.40;5.80;;;17.20;99.90;;;;;;5073510;28;20214;-75
2022/06/06 04:57:52;;;;;;;7.80;6.18;;;17.30;99.90;;;;;;5072802;28;20254;-74
2022/06/06 05:00:20;;;;;;;8.18;7.00;;;17.40;99.90;;;;;;5073022;28;20210;-75
2022/06/06 05:02:47;;;;;;;8.02;7.30;;;17.40;99.90;;;;;;5072755;28;20233;-75
2022/06/06 05:05:14;;;;;;;7.70;6.93;;;17.40;99.90;;;;;;5073064;28;20214;-74
2022/06/06 05:07:59;;;;;;;8.95;7.95;;;17.40;99.90;;;;;;5072485;28;20622;-74
2022/06/06 05:10:40;;;;;;;7.03;6.43;;;17.40;99.90;;;;;;5072879;28;20672;-74
2022/06/06 05:13:43;;;;;;;7.15;6.55;;;17.40;99.90;;;;;;5072337;28;20677;-74
2022/06/06 05:16:36;;;;;;;7.28;6.57;;;17.50;99.90;;;;;;5072645;28;20202;-74
2022/06/06 05:19:18;;;;;;;8.18;7.25;;;17.60;99.90;;;;;;5072887;28;20210;-73
2022/06/06 05:22:08;;;;;;;6.95;6.25;;;17.60;99.90;;;;;;5071960;28;20228;-74
2022/06/06 05:24:49;;;;;;;8.15;7.10;;;17.70;99.90;;;;;;5072085;28;20229;-73
2022/06/06 05:27:30;;;;;;;8.85;7.25;;;17.70;99.90;;;;;;5072613;28;20202;-75
2022/06/06 05:30:06;;;;;;;8.10;7.35;;;17.80;99.90;;;;;;5072382;28;20202;-74
2022/06/06 05:33:00;;;;;;;9.57;7.70;;;17.90;99.90;;;;;;5072428;28;20256;-74
2022/06/06 05:35:43;;;;;;;8.52;7.43;;;17.80;99.90;;;;;;5070964;28;20213;-72
2022/06/06 05:38:23;;;;;;;10.38;7.63;;;18.00;99.90;;;;;;5072185;28;20297;-75
2022/06/06 05:41:00;;;;;;;8.88;7.47;;;18.10;99.90;;;;;;5072296;28;20210;-74
2022/06/06 05:43:36;;;;;;;8.52;7.50;;;18.30;99.90;;;;;;5071906;28;20242;-74
2022/06/06 05:46:19;;;;;;;8.15;6.97;;;18.20;99.90;;;;;;5072441;28;20217;-73
2022/06/06 05:48:58;;;;;;;11.13;7.75;;;18.20;99.90;;;;;;5071570;28;20202;-73
2022/06/06 05:51:36;;;;;;;9.20;8.02;;;18.20;99.90;;;;;;5071940;28;20256;-73
2022/06/06 05:54:26;;;;;;;11.60;8.48;;;18.40;99.90;;;;;;5072151;28;20202;-73
2022/06/06 05:57:08;;;;;;;9.00;8.10;;;18.50;99.90;;;;;;5072302;28;20681;-74
2022/06/06 05:59:54;;;;;;;9.27;8.10;;;18.60;99.90;;;;;;5071674;28;20207;-74
2022/06/06 06:02:39;;;;;;;9.25;7.88;;;18.60;99.90;;;;;;5072225;28;20206;-72
2022/06/06 06:05:17;;;;;;;9.35;7.95;;;18.50;99.90;;;;;;5071585;28;20269;-73
2022/06/06 06:07:58;;;;;;;8.23;7.53;;;18.60;99.90;;;;;;5071317;28;20808;-74
2022/06/06 06:10:32;;;;;;;9.50;8.60;;;18.70;99.90;;;;;;5071972;28;20214;-73
2022/06/06 06:13:33;;;;;;;8.65;7.60;;;18.90;99.90;;;;;;5071801;28;20267;-74
2022/06/06 06:16:03;;;;;;;10.40;8.88;;;19.00;99.90;;;;;;5071600;28;20758;-73
2022/06/06 06:18:37;;;;;;;8.82;7.80;;;19.00;99.90;;;;;;5071467;28;20259;-73
2022/06/06 06:21:09;;;;;;;9.15;7.10;;;19.00;99.90;;;;;;5071480;28;20206;-73
2022/06/06 06:23:41;;;;;;;8.75;6.70;;;19.20;99.90;;;;;;5070940;28;20705;-72
2022/06/06 06:26:09;;;;;;;7.90;7.10;;;19.30;99.90;;;;;;5070727;28;20210;-71
2022/06/06 06:28:37;;;;;;;9.00;6.63;;;19.30;99.90;;;;;;5057554;28;20206;-71
2022/06/06 06:31:19;;;;;;;8.63;7.00;;;19.30;99.90;;;;;;5071629;28;20238;-72
2022/06/06 06:34:05;;;;;;;7.65;6.85;;;19.40;99.90;;;;;;5057751;28;20246;-72
2022/06/06 06:36:44;;;;;;;7.18;6.57;;;19.40;99.90;;;;;;5070952;28;20210;-73
2022/06/06 06:39:23;;;;;;;6.93;6.28;;;19.50;99.90;;;;;;5071133;28;20618;-72
2022/06/06 06:42:01;;;;;;;7.00;6.38;;;19.60;99.90;;;;;;5070773;28;20213;-72
2022/06/06 06:44:33;;;;;;;8.20;7.18;;;19.90;99.90;;;;;;5070643;28;20242;-72
2022/06/06 06:47:12;;;;;;;9.02;6.97;;;20.20;99.90;;;;;;5071035;28;20210;-72
2022/06/06 06:49:44;;;;;;;7.20;6.43;;;20.10;99.90;;;;;;5070313;28;20658;-72
2022/06/06 06:52:26;;;;;;;9.57;6.25;;;20.20;99.90;;;;;;5070839;28;20209;-72
2022/06/06 06:55:05;;;;;;;8.00;6.18;;;20.20;99.90;;;;;;5071129;28;20634;-72
2022/06/06 06:57:45;;;;;;;7.28;5.68;;;20.50;99.90;;;;;;5070324;28;20260;-71
2022/06/06 07:00:15;;;;;;;8.40;7.53;;;20.70;99.90;;;;;;5071001;28;20259;-73
2022/06/06 07:08:52;;;;;;;5.93;5.32;;;20.70;99.90;;;;;;5060424;28;20613;-74
2022/06/06 07:11:39;;;;;;;6.82;6.07;;;20.90;99.90;;;;;;5070685;28;20198;-77
2022/06/06 07:14:18;;;;;;;5.78;5.28;;;20.60;99.90;;;;;;5070664;28;20774;-74
2022/06/06 07:16:50;;;;;;;8.50;6.22;;;20.70;99.90;;;;;;5060793;28;20666;-73
2022/06/06 07:19:20;;;;;;;5.90;5.30;;;20.50;99.90;;;;;;5064150;28;20215;-75
2022/06/06 07:21:50;;;;;;;5.63;4.65;;;20.60;99.90;;;;;;5057498;28;20210;-74
2022/06/06 07:24:19;;;;;;;4.85;4.30;;;20.90;99.90;;;;;;5070466;28;20328;-75
2022/06/06 07:26:48;;;;;;;4.80;4.30;;;21.00;99.90;;;;;;5070047;28;20202;-74
2022/06/06 07:29:17;;;;;;;5.68;4.03;;;21.30;99.90;;;;;;5070562;28;20220;-74
2022/06/06 07:32:14;;;;;;;4.68;4.28;;;21.40;99.90;;;;;;5070182;28;20256;-74
2022/06/06 07:34:55;;;;;;;3.47;3.17;;;21.60;99.90;;;;;;5060836;28;20247;-76
2022/06/06 07:37:37;;;;;;;3.97;3.58;;;21.80;99.90;;;;;;5066484;28;20232;-76
2022/06/06 07:40:14;;;;;;;4.82;3.78;;;21.80;99.90;;;;;;5070111;28;20309;-76
2022/06/06 07:42:57;;;;;;;4.78;2.85;;;21.70;99.90;;;;;;5069992;28;20566;-76
2022/06/06 07:45:29;;;;;;;4.90;3.53;;;22.00;99.90;;;;;;5070484;28;20244;-77
2022/06/06 07:48:27;;;;;;;4.03;3.60;;;22.30;99.90;;;;;;5056666;28;20217;-75
2022/06/06 07:51:01;;;;;;;4.20;3.85;;;22.50;99.90;;;;;;5070539;28;20206;-77
2022/06/06 07:53:40;;;;;;;3.85;3.53;;;22.60;99.90;;;;;;5069710;28;20209;-77
2022/06/06 07:56:14;;;;;;;4.65;4.25;;;22.60;99.90;;;;;;5070430;28;20209;-78
2022/06/06 07:58:53;;;;;;;4.80;2.85;;;22.60;99.90;;;;;;5069828;28;20260;-75
2022/06/06 08:01:26;;;;;;;2.80;2.58;;;22.80;99.90;;;;;;5070253;28;20214;-76
2022/06/06 08:04:06;;;;;;;6.53;4.18;;;23.20;99.90;;;;;;5070265;28;20234;-76
2022/06/06 08:06:39;;;;;;;2.88;2.55;;;23.40;99.90;;;;;;5069667;28;20636;-74
2022/06/06 08:09:39;;;;;;;4.57;2.88;;;24.00;99.90;;;;;;5070088;28;20206;-75
2022/06/06 08:12:32;;;;;;;3.42;2.70;;;24.00;99.90;;;;;;5057813;28;20669;-74
2022/06/06 08:15:13;;;;;;;3.10;2.58;;;23.70;99.90;;;;;;5074907;28;20237;-78
2022/06/06 08:17:56;;;;;;;3.70;2.88;;;23.90;99.90;;;;;;5067846;28;20246;-77
2022/06/06 08:20:30;;;;;;;3.17;2.97;;;23.50;99.90;;;;;;5076581;28;20745;-78
2022/06/06 08:23:01;;;;;;;4.55;3.75;;;23.40;99.90;;;;;;5085902;28;20263;-78
2022/06/06 08:25:30;;;;;;;3.85;3.45;;;23.70;99.90;;;;;;5081689;28;20714;-77
2022/06/06 08:28:00;;;;;;;3.88;3.55;;;23.40;99.90;;;;;;5080519;28;20253;-78
2022/06/06 08:30:27;;;;;;;3.20;2.90;;;23.50;99.90;;;;;;5081912;28;20198;-77
2022/06/06 08:32:54;;;;;;;3.20;2.80;;;23.60;99.90;;;;;;5088294;28;20635;-78
2022/06/06 08:35:23;;;;;;;2.85;2.58;;;23.60;99.90;;;;;;5086832;28;20260;-77
2022/06/06 08:38:08;;;;;;;5.50;3.00;;;23.60;99.90;;;;;;5089072;28;20201;-76
2022/06/06 08:41:06;;;;;;;3.03;2.72;;;23.50;99.90;;;;;;5087678;28;20209;-77
2022/06/06 08:43:54;;;;;;;3.30;3.05;;;24.10;99.90;;;;;;5088051;28;20255;-77
2022/06/06 08:46:28;;;;;;;3.72;2.80;;;24.40;99.90;;;;;;5070556;28;20228;-78
2022/06/06 08:49:10;;;;;;;3.10;2.90;;;24.40;99.90;;;;;;5073233;28;20293;-77
2022/06/06 08:52:02;;;;;;;3.72;3.42;;;24.50;99.90;;;;;;5073117;28;20210;-77
2022/06/06 08:54:55;;;;;;;4.25;3.08;;;24.40;99.90;;;;;;5071350;28;20202;-81
2022/06/06 08:57:45;;;;;;;2.92;2.55;;;24.60;99.90;;;;;;5072538;28;20263;-75
2022/06/06 09:00:23;;;;;;;2.80;2.60;;;24.90;99.90;;;;;;5074740;28;20214;-74
2022/06/06 09:03:45;;;;;;;3.42;3.13;;;25.50;99.90;;;;;;5073952;28;20206;-75
2022/06/06 09:06:50;;;;;;;2.85;2.28;;;25.30;99.90;;;;;;5074234;28;20207;-76
2022/06/06 09:10:03;;;;;;;3.33;2.85;;;25.50;99.90;;;;;;5080883;28;20262;-75
2022/06/06 09:13:06;;;;;;;6.68;2.67;;;25.70;99.90;;;;;;5049772;28;20218;-76
2022/06/06 09:16:02;;;;;;;5.68;2.63;;;25.90;99.90;;;;;;5072978;28;20669;-72
2022/06/06 09:19:36;;;;;;;3.05;2.53;;;26.40;99.90;;;;;;5074951;28;20213;-72
2022/06/06 09:22:33;;;;;;;2.90;2.53;;;26.40;99.90;;;;;;5072898;28;20255;-73
2022/06/06 09:25:27;;;;;;;5.22;2.55;;;26.50;99.90;;;;;;5066299;28;20233;-72
2022/06/06 09:28:29;;;;;;;3.10;2.85;;;27.20;99.90;;;;;;5075950;28;20271;-72
2022/06/06 09:31:31;;;;;;;5.38;2.33;;;29.40;99.90;;;;;;5067308;28;20209;-75
2022/06/06 09:34:29;;;;;;;4.35;2.60;;;30.30;99.90;;;;;;5071480;28;20259;-77
2022/06/06 09:37:06;;;;;;;3.88;2.85;;;30.70;99.90;;;;;;5072097;28;20635;-78
2022/06/06 09:39:39;;;;;;;3.97;3.25;;;29.10;99.90;;;;;;5078199;28;20201;-78
2022/06/06 09:42:24;;;;;;;3.63;2.80;;;28.80;99.90;;;;;;5072920;28;20210;-79
2022/06/06 09:45:30;;;;;;;3.55;2.60;;;28.90;99.90;;;;;;5074008;28;20709;-75
2022/06/06 09:48:29;;;;;;;2.63;2.42;;;29.50;99.90;;;;;;5066647;28;20229;-77
2022/06/06 09:51:29;;;;;;;5.32;3.80;;;29.00;99.90;;;;;;5068711;28;20649;-76
2022/06/06 10:00:46;;;;;;;3.58;3.28;;;29.40;99.90;;;;;;5064675;28;20232;-72
2022/06/06 10:03:46;;;;;;;5.25;3.22;;;31.00;99.90;;;;;;5060380;28;20201;-71
2022/06/06 10:06:48;;;;;;;4.35;2.90;;;32.80;99.90;;;;;;5049070;28;20646;-71
2022/06/06 10:10:00;;;;;;;4.80;2.70;;;32.10;99.90;;;;;;5068346;28;20213;-72
2022/06/06 10:12:43;;;;;;;2.22;2.10;;;34.90;99.90;;;;;;5050818;28;20210;-72
2022/06/06 10:15:32;;;;;;;2.47;2.28;;;35.30;99.90;;;;;;5059406;28;20664;-72
2022/06/06 10:18:42;;;;;;;3.10;2.38;;;34.20;99.90;;;;;;5071737;28;20213;-75
2022/06/06 10:21:23;;;;;;;2.90;2.55;;;34.20;99.90;;;;;;5071736;28;20213;-76
2022/06/06 10:24:04;;;;;;;2.30;2.17;;;35.60;99.90;;;;;;5071472;28;20206;-76
2022/06/06 10:26:57;;;;;;;2.97;2.15;;;36.20;99.90;;;;;;5071125;28;20201;-77
2022/06/06 10:30:14;;;;;;;2.33;1.88;;;33.30;99.90;;;;;;5072054;28;20217;-75
2022/06/06 10:33:00;;;;;;;2.53;2.33;;;34.10;99.90;;;;;;5071015;28;20661;-79
2022/06/06 10:35:41;;;;;;;2.47;2.20;;;33.20;99.90;;;;;;5057733;28;20205;-74
2022/06/06 10:38:32;;;;;;;3.92;2.63;;;29.60;99.90;;;;;;5071110;28;20202;-77
2022/06/06 10:41:07;;;;;;;3.03;2.80;;;27.80;99.90;;;;;;5071057;28;20213;-74
2022/06/06 10:43:41;;;;;;;2.90;2.10;;;27.70;99.90;;;;;;5070582;28;20254;-78
2022/06/06 10:46:14;;;;;;;3.03;2.72;;;27.40;99.90;;;;;;5067598;28;20241;-77
2022/06/06 10:49:13;;;;;;;3.17;2.53;;;27.40;99.90;;;;;;5070517;28;20263;-78
2022/06/06 10:52:15;;;;;;;3.60;2.65;;;27.50;99.90;;;;;;5070967;28;20252;-78
2022/06/06 10:55:27;;;;;;;2.80;2.60;;;27.20;99.90;;;;;;5061290;28;20633;-77
2022/06/06 10:58:26;;;;;;;3.38;2.63;;;27.20;99.90;;;;;;5071098;28;20260;-77
2022/06/06 11:01:22;;;;;;;2.38;2.17;;;27.50;99.90;;;;;;5071250;28;20213;-74
2022/06/06 11:04:18;;;;;;;3.78;3.40;;;28.00;99.90;;;;;;5068958;28;20205;-75
2022/06/06 11:07:11;;;;;;;2.92;2.72;;;28.20;99.90;;;;;;5058935;28;20210;-75
2022/06/06 11:10:09;;;;;;;2.72;2.53;;;28.10;99.90;;;;;;5070127;28;20260;-75
2022/06/06 11:13:13;;;;;;;4.50;2.88;;;28.20;99.90;;;;;;5065230;28;20206;-76
2022/06/06 11:15:42;;;;;;;2.60;2.40;;;28.30;99.90;;;;;;5070201;28;20206;-73
2022/06/06 11:18:35;;;;;;;2.47;2.28;;;27.80;99.90;;;;;;5070409;28;20210;-73
2022/06/06 11:21:26;;;;;;;3.45;1.95;;;27.90;99.90;;;;;;5065958;28;20210;-73
2022/06/06 11:24:00;;;;;;;2.42;2.22;;;28.10;99.90;;;;;;5060213;28;20218;-75
2022/06/06 11:27:06;;;;;;;2.95;2.33;;;28.10;99.90;;;;;;5070010;28;20229;-71
2022/06/06 11:30:00;;;;;;;3.25;2.25;;;27.80;99.90;;;;;;5070127;28;20206;-71
2022/06/06 11:33:18;;;;;;;2.97;2.65;;;28.10;99.90;;;;;;5070035;28;20210;-70
2022/06/06 11:36:09;;;;;;;2.22;2.03;;;28.30;99.90;;;;;;5054100;28;20210;-70
2022/06/06 11:39:15;;;;;;;2.60;2.42;;;28.30;99.90;;;;;;5069824;28;20202;-70
2022/06/06 11:42:06;;;;;;;4.85;2.55;;;28.40;99.90;;;;;;5069800;28;20214;-70
2022/06/06 11:45:00;;;;;;;2.08;1.88;;;28.40;99.90;;;;;;5069876;28;20210;-71
2022/06/06 11:47:48;;;;;;;3.35;2.35;;;28.10;99.90;;;;;;5057486;28;20688;-71
2022/06/06 11:50:53;;;;;;;3.92;2.63;;;28.20;99.90;;;;;;5067021;28;20210;-71
2022/06/06 11:53:51;;;;;;;12.65;2.47;;;28.40;99.90;;;;;;5070373;28;20582;-71
2022/06/06 11:56:36;;;;;;;3.60;2.08;;;28.50;99.90;;;;;;5056685;28;20256;-71
2022/06/06 11:59:48;;;;;;;2.00;1.80;;;28.10;99.90;;;;;;5070308;28;20213;-71
2022/06/06 12:02:55;;;;;;;2.65;2.42;;;28.30;99.90;;;;;;5070184;28;20213;-73
2022/06/06 12:06:06;;;;;;;3.33;2.60;;;28.00;99.90;;;;;;5061461;28;20265;-73
2022/06/06 12:09:02;;;;;;;2.78;2.58;;;28.20;99.90;;;;;;5069892;28;20267;-73
2022/06/06 12:12:15;;;;;;;2.53;2.08;;;28.40;99.90;;;;;;5061662;28;20259;-76
2022/06/06 12:15:07;;;;;;;2.85;2.17;;;28.40;99.90;;;;;;5069643;28;20260;-75
2022/06/06 12:17:46;;;;;;;2.30;2.10;;;28.40;99.90;;;;;;5069758;28;20621;-79
2022/06/06 12:20:47;;;;;;;2.95;2.75;;;28.70;99.90;;;;;;5057228;28;20240;-74
2022/06/06 12:23:22;;;;;;;4.90;2.70;;;28.70;99.90;;;;;;5070828;28;20605;-75
2022/06/06 12:26:07;;;;;;;3.45;2.13;;;28.40;99.90;;;;;;5073698;28;20580;-77
2022/06/06 12:29:06;;;;;;;2.97;2.40;;;28.70;99.90;;;;;;5073548;28;20202;-74
2022/06/06 12:32:10;;;;;;;2.88;2.67;;;28.10;99.90;;;;;;5073364;28;20206;-74
2022/06/06 12:34:43;;;;;;;2.28;2.13;;;28.20;99.90;;;;;;5069778;28;20209;-75
2022/06/06 12:37:14;;;;;;;2.40;2.20;;;28.90;99.90;;;;;;5060282;28;20263;-75
2022/06/06 12:39:57;;;;;;;3.13;2.22;;;29.10;99.90;;;;;;5073107;28;20247;-73
2022/06/06 12:42:35;;;;;;;4.65;2.00;;;29.10;99.90;;;;;;5061577;28;20237;-73
2022/06/06 12:45:21;;;;;;;2.45;1.75;;;29.40;99.90;;;;;;5073416;28;20238;-73
2022/06/06 12:48:16;;;;;;;2.80;2.60;;;28.80;99.90;;;;;;5061336;28;20210;-75
2022/06/06 12:50:51;;;;;;;3.22;2.97;;;28.70;99.90;;;;;;5069277;28;20206;-74
2022/06/06 12:54:02;;;;;;;2.92;2.60;;;28.60;99.90;;;;;;5073535;28;20259;-74
2022/06/06 12:56:47;;;;;;;2.83;2.63;;;28.80;99.90;;;;;;5060777;28;20210;-74
2022/06/06 12:59:27;;;;;;;3.08;2.78;;;28.90;99.90;;;;;;5073204;28;20214;-74
2022/06/06 13:02:00;;;;;;;3.22;3.03;;;29.30;99.90;;;;;;5073485;28;20617;-75
2022/06/06 13:04:49;;;;;;;3.40;2.50;;;29.60;99.90;;;;;;5072517;28;20666;-74
2022/06/06 13:07:38;;;;;;;2.47;2.33;;;29.60;99.90;;;;;;5073135;28;20214;-75
2022/06/06 13:10:19;;;;;;;2.80;2.55;;;29.70;99.90;;;;;;5072950;28;20637;-73
2022/06/06 13:13:24;;;;;;;3.42;2.42;;;29.40;99.90;;;;;;5072597;28;20267;-74
2022/06/06 13:16:01;;;;;;;6.60;2.75;;;29.30;99.90;;;;;;5056709;28;20205;-73
2022/06/06 13:18:46;;;;;;;2.85;2.65;;;29.30;99.90;;;;;;5059366;28;20240;-73
2022/06/06 13:21:28;;;;;;;3.65;2.72;;;29.00;99.90;;;;;;5072317;28;20248;-73
2022/06/06 13:24:19;;;;;;;3.28;3.08;;;29.00;99.90;;;;;;5072964;28;20256;-75
2022/06/06 13:26:48;;;;;;;2.80;2.60;;;28.80;99.90;;;;;;5071167;28;20288;-74
2022/06/06 13:29:29;;;;;;;3.10;2.90;;;28.60;99.90;;;;;;5072729;28;20631;-74
2022/06/06 13:32:09;;;;;;;2.75;2.55;;;28.50;99.90;;;;;;5072745;28;20213;-75
2022/06/06 13:34:51;;;;;;;2.83;2.63;;;28.60;99.90;;;;;;5071850;28;20206;-73
2022/06/06 13:37:28;;;;;;;3.55;2.72;;;28.50;99.90;;;;;;5060471;28;20214;-72
2022/06/06 13:40:22;;;;;;;2.97;2.63;;;28.70;99.90;;;;;;5072385;28;20263;-73
2022/06/06 13:43:17;;;;;;;2.35;2.15;;;28.60;99.90;;;;;;5072217;28;20665;-73
2022/06/06 13:45:49;;;;;;;2.78;2.58;;;28.50;99.90;;;;;;5071853;28;20377;-74
2022/06/06 13:48:43;;;;;;;2.60;2.40;;;28.60;99.90;;;;;;5072403;28;20260;-74
2022/06/06 13:51:25;;;;;;;3.38;2.35;;;28.90;99.90;;;;;;5058984;28;20323;-74
2022/06/06 13:54:02;;;;;;;4.25;2.50;;;29.30;99.90;;;;;;5072487;28;20206;-72
2022/06/06 13:56:38;;;;;;;3.13;2.88;;;29.20;99.90;;;;;;5071970;28;20296;-73
2022/06/06 13:59:19;;;;;;;3.90;3.30;;;29.20;99.90;;;;;;5071854;28;20210;-74
2022/06/06 14:01:52;;;;;;;2.55;2.35;;;29.60;99.90;;;;;;5071750;28;20202;-74
2022/06/06 14:04:46;;;;;;;2.97;2.78;;;29.60;99.90;;;;;;5071767;28;20264;-74
2022/06/06 14:07:36;;;;;;;2.88;2.13;;;29.20;99.90;;;;;;5072166;28;20237;-73
2022/06/06 14:10:08;;;;;;;4.97;2.20;;;28.70;99.90;;;;;;5071992;28;20264;-74
2022/06/06 14:12:54;;;;;;;3.83;2.35;;;28.40;99.90;;;;;;5071212;28;20255;-73
2022/06/06 14:15:23;;;;;;;2.80;2.60;;;28.30;99.90;;;;;;5072113;28;20264;-74
2022/06/06 14:17:55;;;;;;;3.08;2.67;;;28.40;99.90;;;;;;5071742;28;20210;-73
2022/06/06 14:20:32;;;;;;;2.75;2.42;;;28.50;99.90;;;;;;5072087;28;20270;-74